LFPM 160000Z AUTO 18003KT CAVOK 19/14 Q1014

Notre flotte, composée de neuf avions de 65 à 285 CV